createdAt,value
2023-04-29T00:01:38.391Z,7.83
2023-04-29T00:03:43.657Z,7.83
2023-04-29T00:05:48.884Z,7.68
2023-04-29T00:07:53.974Z,7.62
2023-04-29T00:09:58.981Z,7.60
2023-04-29T00:12:04.011Z,7.57
2023-04-29T00:14:09.106Z,7.54
2023-04-29T00:16:14.362Z,7.54
2023-04-29T00:18:22.195Z,7.51
2023-04-29T00:20:27.346Z,7.55
2023-04-29T00:22:32.742Z,7.56
2023-04-29T00:24:37.799Z,7.67
2023-04-29T00:26:43.955Z,7.82
2023-04-29T00:28:49.253Z,7.84
2023-04-29T00:30:54.350Z,7.89
2023-04-29T00:32:59.401Z,7.88
2023-04-29T00:35:07.892Z,8.02
2023-04-29T00:37:12.938Z,7.97
2023-04-29T00:39:18.455Z,7.95
2023-04-29T00:41:24.176Z,7.83
2023-04-29T00:43:29.577Z,7.82
2023-04-29T00:45:34.640Z,7.77
2023-04-29T00:47:40.064Z,7.89
2023-04-29T00:49:45.455Z,7.86
2023-04-29T00:51:53.421Z,7.69
2023-04-29T00:53:58.647Z,7.60
2023-04-29T00:56:04.855Z,7.53
2023-04-29T00:58:10.148Z,7.50
2023-04-29T01:00:16.761Z,7.46
2023-04-29T01:02:22.583Z,7.47
2023-04-29T01:04:29.565Z,7.41
2023-04-29T01:06:47.689Z,7.34
2023-04-29T01:09:11.318Z,7.34
2023-04-29T01:11:23.451Z,7.28
2023-04-29T01:13:45.271Z,7.33
2023-04-29T01:15:59.036Z,7.38
2023-04-29T01:18:13.354Z,7.37
2023-04-29T01:20:19.011Z,7.37
2023-04-29T01:22:24.088Z,7.47
2023-04-29T01:24:31.873Z,7.53
2023-04-29T01:26:37.833Z,7.55
2023-04-29T01:28:57.222Z,7.65
2023-04-29T01:31:09.902Z,7.90
2023-04-29T01:33:26.162Z,7.95
2023-04-29T01:35:49.575Z,7.96
2023-04-29T01:38:04.322Z,7.96
2023-04-29T01:40:19.228Z,7.86
2023-04-29T01:42:42.902Z,7.92
2023-04-29T01:44:54.030Z,7.98
2023-04-29T01:47:04.042Z,8.02
2023-04-29T01:49:16.447Z,8.04
2023-04-29T01:51:21.982Z,8.16
2023-04-29T01:53:27.428Z,8.21
2023-04-29T01:55:35.109Z,8.24
2023-04-29T01:57:58.235Z,8.31
2023-04-29T02:00:22.545Z,8.42
2023-04-29T02:02:30.644Z,8.44
2023-04-29T02:04:46.304Z,8.49
2023-04-29T02:06:52.441Z,8.58
2023-04-29T02:08:57.487Z,8.59
2023-04-29T02:11:05.143Z,8.62
2023-04-29T02:13:15.573Z,8.68
2023-04-29T02:15:21.609Z,8.70
2023-04-29T02:17:26.941Z,8.72
2023-04-29T02:19:32.043Z,8.74
2023-04-29T02:21:40.105Z,8.78
2023-04-29T02:23:45.201Z,8.81
2023-04-29T02:25:50.476Z,8.81
2023-04-29T02:27:58.157Z,8.79
2023-04-29T02:30:04.983Z,8.78
2023-04-29T02:32:10.224Z,8.83
2023-04-29T02:34:16.597Z,8.89
2023-04-29T02:36:21.685Z,8.93
2023-04-29T02:38:29.267Z,8.96
2023-04-29T02:40:34.284Z,8.98
2023-04-29T02:42:39.320Z,9.02
2023-04-29T02:44:46.945Z,9.05
2023-04-29T02:46:52.040Z,9.07
2023-04-29T02:48:57.253Z,9.10
2023-04-29T02:51:02.353Z,9.16
2023-04-29T02:53:10.474Z,9.20
2023-04-29T02:55:15.628Z,9.23
2023-04-29T02:57:21.210Z,9.26
2023-04-29T02:59:26.643Z,9.27
2023-04-29T03:01:34.529Z,9.29
2023-04-29T03:03:40.412Z,9.37
2023-04-29T03:05:46.041Z,9.43
2023-04-29T03:07:51.542Z,9.41
2023-04-29T03:09:57.049Z,9.44
2023-04-29T03:12:03.110Z,9.44
2023-04-29T03:14:08.787Z,9.43
2023-04-29T03:16:14.421Z,9.44
2023-04-29T03:18:22.234Z,9.51
2023-04-29T03:20:27.489Z,9.60
2023-04-29T03:22:32.688Z,9.66
2023-04-29T03:24:37.946Z,9.66
2023-04-29T03:26:43.349Z,9.73
2023-04-29T03:28:50.481Z,9.76
2023-04-29T03:30:56.955Z,9.79
2023-04-29T03:33:02.548Z,9.85
2023-04-29T03:35:15.570Z,9.87
2023-04-29T03:37:34.243Z,9.86
2023-04-29T03:39:52.985Z,9.87
2023-04-29T03:41:58.488Z,9.90
2023-04-29T03:44:03.843Z,9.96
2023-04-29T03:46:09.311Z,10.05
2023-04-29T03:48:14.912Z,10.01
2023-04-29T03:50:22.818Z,9.99
2023-04-29T03:52:28.801Z,10.03
2023-04-29T03:54:40.002Z,10.02
2023-04-29T03:56:45.276Z,10.05
2023-04-29T03:58:51.528Z,10.05
2023-04-29T04:00:58.483Z,10.03
2023-04-29T04:03:12.271Z,10.02
2023-04-29T04:05:19.685Z,10.08
2023-04-29T04:07:31.805Z,10.13
2023-04-29T04:10:14.925Z,10.19
2023-04-29T04:12:20.113Z,10.17
2023-04-29T04:14:25.591Z,10.16
2023-04-29T04:16:30.714Z,10.15
2023-04-29T04:18:35.913Z,10.18
2023-04-29T04:20:41.318Z,10.25
2023-04-29T04:22:50.956Z,10.32
2023-04-29T04:25:00.936Z,10.39
2023-04-29T04:27:06.094Z,10.45
2023-04-29T04:29:15.592Z,10.47
2023-04-29T04:31:53.076Z,10.62
2023-04-29T04:34:00.009Z,10.67
2023-04-29T04:36:07.432Z,10.71
2023-04-29T04:38:15.633Z,10.77
2023-04-29T04:40:21.091Z,10.96
2023-04-29T04:42:46.115Z,10.96
2023-04-29T04:44:53.209Z,11.00
2023-04-29T04:47:09.600Z,10.99
2023-04-29T04:49:27.622Z,10.92
2023-04-29T04:51:33.197Z,10.89
2023-04-29T04:53:42.220Z,10.91
2023-04-29T04:55:55.998Z,10.93
2023-04-29T04:58:02.520Z,10.95
2023-04-29T05:00:09.803Z,10.96
2023-04-29T05:02:14.956Z,10.99
2023-04-29T05:04:20.179Z,11.02
2023-04-29T05:06:25.793Z,11.06
2023-04-29T05:08:30.898Z,11.10
2023-04-29T05:10:44.690Z,11.18
2023-04-29T05:12:50.649Z,11.24
2023-04-29T05:14:57.532Z,11.35
2023-04-29T05:17:06.740Z,11.42
2023-04-29T05:19:12.069Z,11.46
2023-04-29T05:21:18.918Z,11.45
2023-04-29T05:23:25.449Z,11.49
2023-04-29T05:25:30.540Z,11.63
2023-04-29T05:27:38.661Z,11.64
2023-04-29T05:29:47.473Z,11.67
2023-04-29T05:31:52.818Z,11.74
2023-04-29T05:33:58.138Z,11.75
2023-04-29T05:36:03.743Z,11.93
2023-04-29T05:38:11.057Z,12.00
2023-04-29T05:40:19.453Z,12.04
2023-04-29T05:42:25.358Z,11.99
2023-04-29T05:44:33.007Z,12.14
2023-04-29T05:46:38.452Z,12.05
2023-04-29T05:48:43.505Z,12.05
2023-04-29T05:50:50.378Z,12.03
2023-04-29T05:52:56.937Z,12.15
2023-04-29T05:55:03.404Z,12.12
2023-04-29T05:57:08.724Z,12.14
2023-04-29T05:59:13.744Z,12.22
2023-04-29T06:01:22.504Z,12.16
2023-04-29T06:03:28.071Z,12.25
2023-04-29T06:05:50.423Z,12.35
2023-04-29T06:08:11.081Z,12.28
2023-04-29T06:10:28.904Z,12.20
2023-04-29T06:12:34.667Z,12.28
2023-04-29T06:14:39.743Z,12.26
2023-04-29T06:16:47.533Z,12.17
2023-04-29T06:18:52.579Z,12.14
2023-04-29T06:20:57.589Z,12.09
2023-04-29T06:23:02.818Z,12.06
2023-04-29T06:25:08.823Z,12.19
2023-04-29T06:27:25.198Z,12.16
2023-04-29T06:29:30.822Z,12.35
2023-04-29T06:31:35.924Z,12.36
2023-04-29T06:33:45.630Z,12.49
2023-04-29T06:35:50.975Z,12.41
2023-04-29T06:38:11.520Z,12.46
2023-04-29T06:40:34.872Z,12.37
2023-04-29T06:42:46.810Z,12.38
2023-04-29T06:45:11.791Z,12.37
2023-04-29T06:47:20.289Z,12.51
2023-04-29T06:49:53.130Z,12.55
2023-04-29T06:52:02.289Z,12.53
2023-04-29T06:54:07.843Z,12.57
2023-04-29T06:58:19.026Z,12.70
2023-04-29T07:00:24.301Z,12.76
2023-04-29T07:02:33.228Z,12.72
2023-04-29T07:04:38.757Z,12.83
2023-04-29T07:06:47.372Z,12.91
2023-04-29T07:08:54.783Z,13.13
2023-04-29T07:11:01.926Z,13.06
2023-04-29T07:13:07.585Z,13.06
2023-04-29T07:15:13.625Z,12.94
2023-04-29T07:17:18.989Z,13.11
2023-04-29T07:19:25.462Z,13.28
2023-04-29T07:21:31.434Z,13.25
2023-04-29T07:23:39.154Z,13.21
2023-04-29T07:25:44.736Z,13.25
2023-04-29T07:27:49.774Z,13.24
2023-04-29T07:29:54.829Z,13.07
2023-04-29T07:32:00.100Z,12.95
2023-04-29T07:34:06.201Z,12.89
2023-04-29T07:36:11.624Z,12.96
2023-04-29T07:38:16.637Z,13.00
2023-04-29T07:40:24.827Z,12.96
2023-04-29T07:42:34.661Z,13.12
2023-04-29T07:44:40.108Z,12.93
2023-04-29T07:46:45.291Z,12.87
2023-04-29T07:48:50.802Z,12.83
2023-04-29T07:50:55.898Z,12.98
2023-04-29T07:53:02.281Z,13.02
2023-04-29T07:55:08.683Z,13.20
2023-04-29T07:57:16.517Z,13.05
2023-04-29T07:59:21.548Z,12.81
2023-04-29T08:01:27.249Z,12.89
2023-04-29T08:03:32.868Z,12.91
2023-04-29T08:05:39.434Z,12.99
2023-04-29T08:07:44.572Z,12.80
2023-04-29T08:09:49.608Z,12.81
2023-04-29T08:11:55.167Z,12.73
2023-04-29T08:14:02.877Z,12.91
2023-04-29T08:16:09.721Z,13.09
2023-04-29T08:18:14.856Z,13.08
2023-04-29T08:20:20.051Z,13.23
2023-04-29T08:22:25.581Z,13.20
2023-04-29T08:24:31.193Z,13.26
2023-04-29T08:26:36.846Z,13.20
2023-04-29T08:28:41.996Z,13.27
2023-04-29T08:30:49.937Z,13.40
2023-04-29T08:32:55.022Z,13.48
2023-04-29T08:35:00.107Z,13.49
2023-04-29T08:37:06.062Z,13.48
2023-04-29T08:39:11.102Z,13.53
2023-04-29T08:41:17.001Z,13.52
2023-04-29T08:43:23.213Z,13.61
2023-04-29T08:45:31.931Z,13.49
2023-04-29T08:47:40.852Z,13.34
2023-04-29T08:49:46.073Z,13.49
2023-04-29T08:51:53.438Z,13.67
2023-04-29T08:53:59.755Z,13.86
2023-04-29T08:56:22.208Z,14.06
2023-04-29T08:58:31.038Z,14.21
2023-04-29T09:00:37.368Z,14.26
2023-04-29T09:02:53.154Z,14.30
2023-04-29T09:05:07.690Z,14.37
2023-04-29T09:07:15.273Z,14.42
2023-04-29T09:09:21.308Z,14.29
2023-04-29T09:11:26.553Z,14.32
2023-04-29T09:13:34.090Z,13.97
2023-04-29T09:15:41.558Z,13.79
2023-04-29T09:17:51.829Z,13.72
2023-04-29T09:19:57.277Z,13.61
2023-04-29T09:22:02.734Z,13.40
2023-04-29T09:24:08.666Z,13.22
2023-04-29T09:26:13.921Z,13.17
2023-04-29T09:28:19.562Z,13.05
2023-04-29T09:30:27.034Z,12.93
2023-04-29T09:32:32.092Z,12.88
2023-04-29T09:34:41.476Z,12.94
2023-04-29T09:36:48.650Z,13.05
2023-04-29T09:38:58.315Z,13.01
2023-04-29T09:41:12.235Z,13.05
2023-04-29T09:43:19.159Z,13.18
2023-04-29T09:45:37.764Z,13.07
2023-04-29T09:47:42.966Z,13.05
2023-04-29T09:49:50.589Z,13.10
2023-04-29T09:51:57.563Z,13.14
2023-04-29T09:54:04.437Z,13.25
2023-04-29T09:56:10.113Z,13.21
2023-04-29T09:58:37.303Z,13.37
2023-04-29T10:00:43.343Z,13.58
2023-04-29T10:02:51.230Z,13.78
2023-04-29T10:05:00.989Z,14.07
2023-04-29T10:07:06.789Z,14.31
2023-04-29T10:09:16.225Z,14.57
2023-04-29T10:11:22.053Z,14.66
2023-04-29T10:13:28.517Z,14.80
2023-04-29T10:15:43.320Z,14.86
2023-04-29T10:17:52.362Z,14.86
2023-04-29T10:20:06.435Z,14.58
2023-04-29T10:22:15.880Z,14.54
2023-04-29T10:24:22.104Z,13.79
2023-04-29T10:26:32.433Z,13.82
2023-04-29T10:28:40.358Z,13.59
2023-04-29T10:30:48.274Z,13.57
2023-04-29T10:32:54.882Z,13.67
2023-04-29T10:35:03.985Z,13.77
2023-04-29T10:37:09.823Z,14.03
2023-04-29T10:39:26.913Z,14.31
2023-04-29T10:41:48.021Z,14.57
2023-04-29T10:43:53.554Z,14.97
2023-04-29T10:46:30.926Z,15.02
2023-04-29T10:48:35.972Z,15.03
2023-04-29T10:51:05.712Z,14.91
2023-04-29T10:53:11.217Z,14.94
2023-04-29T10:55:16.205Z,14.88
2023-04-29T10:57:25.107Z,14.82
2023-04-29T10:59:48.347Z,14.67
2023-04-29T11:01:55.808Z,14.74
2023-04-29T11:04:05.512Z,14.89
2023-04-29T11:06:15.030Z,15.19
2023-04-29T11:08:26.708Z,15.45
2023-04-29T11:10:39.792Z,15.64
2023-04-29T11:12:45.484Z,15.94
2023-04-29T11:14:55.807Z,16.28
2023-04-29T11:17:04.674Z,16.36
2023-04-29T11:19:12.509Z,16.73
2023-04-29T11:21:20.405Z,16.90
2023-04-29T11:23:28.590Z,16.97
2023-04-29T11:25:33.880Z,17.00
2023-04-29T11:27:42.829Z,16.91
2023-04-29T11:29:49.430Z,17.03
2023-04-29T11:32:02.904Z,16.74
2023-04-29T11:34:08.931Z,16.69
2023-04-29T11:36:15.375Z,16.68
2023-04-29T11:38:27.562Z,16.19
2023-04-29T11:40:32.578Z,16.15
2023-04-29T11:42:39.099Z,16.20
2023-04-29T11:44:44.104Z,16.03
2023-04-29T11:46:49.828Z,15.79
2023-04-29T11:48:55.393Z,15.75
2023-04-29T11:51:02.716Z,15.57
2023-04-29T11:53:07.968Z,15.30
2023-04-29T11:55:16.334Z,15.13
2023-04-29T11:57:21.435Z,15.00
2023-04-29T11:59:27.193Z,14.87
2023-04-29T12:01:32.322Z,14.73
2023-04-29T12:03:37.876Z,14.61
2023-04-29T12:05:43.162Z,14.60
2023-04-29T12:07:48.231Z,14.38
2023-04-29T12:09:53.860Z,14.50
2023-04-29T12:12:01.779Z,14.52
2023-04-29T12:14:08.351Z,14.48
2023-04-29T12:16:14.106Z,14.48
2023-04-29T12:18:23.659Z,14.43
2023-04-29T12:20:29.535Z,14.39
2023-04-29T12:22:35.261Z,14.18
2023-04-29T12:24:42.136Z,13.94
2023-04-29T12:26:49.559Z,13.76
2023-04-29T12:29:01.943Z,13.59
2023-04-29T12:31:07.155Z,13.47
2023-04-29T12:33:12.628Z,13.47
2023-04-29T12:35:19.423Z,13.31
2023-04-29T12:37:26.156Z,13.36
2023-04-29T12:39:33.879Z,13.42
2023-04-29T12:41:44.348Z,13.38
2023-04-29T12:43:49.425Z,13.38
2023-04-29T12:45:58.961Z,13.49
2023-04-29T12:48:08.988Z,13.64
2023-04-29T12:50:20.496Z,13.77
2023-04-29T12:52:25.532Z,13.93
2023-04-29T12:54:30.843Z,14.17
2023-04-29T12:56:36.228Z,14.17
2023-04-29T12:58:42.092Z,14.48
2023-04-29T13:00:47.227Z,14.71
2023-04-29T13:02:55.324Z,15.19
2023-04-29T13:05:01.322Z,15.42
2023-04-29T13:07:07.035Z,15.84
2023-04-29T13:09:18.639Z,16.55
2023-04-29T13:11:24.692Z,16.69
2023-04-29T13:13:29.904Z,16.49
2023-04-29T13:15:36.202Z,16.56
2023-04-29T13:17:41.762Z,16.22
2023-04-29T13:19:51.823Z,15.90
2023-04-29T13:21:57.184Z,15.59
2023-04-29T13:24:02.198Z,15.23
2023-04-29T13:26:09.043Z,14.73
2023-04-29T13:28:14.685Z,14.23
2023-04-29T13:30:20.201Z,13.76
2023-04-29T13:32:25.876Z,13.71
2023-04-29T13:34:30.937Z,13.44
2023-04-29T13:36:38.815Z,13.35
2023-04-29T13:38:44.910Z,13.11
2023-04-29T13:40:51.638Z,12.90
2023-04-29T13:43:05.033Z,12.79
2023-04-29T13:45:15.542Z,12.76
2023-04-29T13:47:26.243Z,12.72
2023-04-29T13:49:55.990Z,12.69
2023-04-29T13:52:30.580Z,12.73
2023-04-29T13:59:30.669Z,12.70
2023-04-29T14:01:26.075Z,12.85
2023-04-29T14:03:35.590Z,12.86
2023-04-29T14:05:42.003Z,12.86
2023-04-29T14:07:49.689Z,12.97
2023-04-29T14:09:54.725Z,12.82
2023-04-29T14:11:59.977Z,12.88
2023-04-29T14:14:05.026Z,12.95
2023-04-29T14:16:11.797Z,12.93
2023-04-29T14:18:16.860Z,13.03
2023-04-29T14:20:22.142Z,12.93
2023-04-29T14:22:27.558Z,12.88
2023-04-29T14:24:35.166Z,12.92
2023-04-29T14:26:40.239Z,12.98
2023-04-29T14:28:45.339Z,13.02
2023-04-29T14:30:50.432Z,13.15
2023-04-29T14:32:55.454Z,13.33
2023-04-29T14:35:00.965Z,13.33
2023-04-29T14:37:06.024Z,13.50
2023-04-29T14:39:11.225Z,13.47
2023-04-29T14:41:18.877Z,13.63
2023-04-29T14:43:24.235Z,13.69
2023-04-29T14:45:29.273Z,13.89
2023-04-29T14:47:34.666Z,13.95
2023-04-29T14:49:39.731Z,14.08
2023-04-29T14:51:44.771Z,14.14
2023-04-29T14:53:49.963Z,14.41
2023-04-29T14:55:55.561Z,14.36
2023-04-29T14:58:05.351Z,14.50
2023-04-29T15:00:12.727Z,14.60
2023-04-29T15:02:18.089Z,14.65
2023-04-29T15:04:23.133Z,14.80
2023-04-29T15:06:28.745Z,15.04
2023-04-29T15:08:34.458Z,15.18
2023-04-29T15:10:39.549Z,15.16
2023-04-29T15:12:45.109Z,15.07
2023-04-29T15:14:53.698Z,15.05
2023-04-29T15:16:58.932Z,14.92
2023-04-29T15:19:04.365Z,14.77
2023-04-29T15:21:09.669Z,14.65
2023-04-29T15:23:15.258Z,14.55
2023-04-29T15:25:21.197Z,14.43
2023-04-29T15:27:26.879Z,14.13
2023-04-29T15:29:32.806Z,14.03
2023-04-29T15:31:41.285Z,14.19
2023-04-29T15:33:46.677Z,13.96
2023-04-29T15:35:51.746Z,14.09
2023-04-29T15:37:57.617Z,14.01
2023-04-29T15:40:04.441Z,13.90
2023-04-29T15:42:09.638Z,13.96
2023-04-29T15:44:15.095Z,13.93
2023-04-29T15:46:20.306Z,13.88
2023-04-29T15:48:28.399Z,13.89
2023-04-29T15:50:33.420Z,13.72
2023-04-29T15:52:38.862Z,13.80
2023-04-29T15:54:43.894Z,13.68
2023-04-29T15:56:49.100Z,13.66
2023-04-29T15:58:54.897Z,13.52
2023-04-29T16:01:00.336Z,13.56
2023-04-29T16:03:06.133Z,13.46
2023-04-29T16:05:14.069Z,13.39
2023-04-29T16:07:20.608Z,13.49
2023-04-29T16:09:26.119Z,13.34
2023-04-29T16:11:31.129Z,13.39
2023-04-29T16:13:36.891Z,13.39
2023-04-29T16:15:41.967Z,13.40
2023-04-29T16:17:47.453Z,13.41
2023-04-29T16:19:52.708Z,13.45
2023-04-29T16:22:00.397Z,13.35
2023-04-29T16:24:06.250Z,13.22
2023-04-29T16:26:11.729Z,13.29
2023-04-29T16:28:17.775Z,13.18
2023-04-29T16:30:22.816Z,13.12
2023-04-29T16:32:28.932Z,13.04
2023-04-29T16:34:34.017Z,13.02
2023-04-29T16:36:39.519Z,13.18
2023-04-29T16:38:47.603Z,13.11
2023-04-29T16:40:52.705Z,13.04
2023-04-29T16:42:57.984Z,13.14
2023-04-29T16:45:04.228Z,13.02
2023-04-29T16:47:09.438Z,13.01
2023-04-29T16:49:14.971Z,13.05
2023-04-29T16:51:20.388Z,13.18
2023-04-29T16:53:25.520Z,12.98
2023-04-29T16:55:33.539Z,12.83
2023-04-29T16:57:38.598Z,12.72
2023-04-29T16:59:43.627Z,12.77
2023-04-29T17:01:48.800Z,12.87
2023-04-29T17:03:54.217Z,12.85
2023-04-29T17:05:59.269Z,12.58
2023-04-29T17:08:05.985Z,12.58
2023-04-29T17:10:12.458Z,12.49
2023-04-29T17:12:20.086Z,12.43
2023-04-29T17:14:25.496Z,12.38
2023-04-29T17:16:30.775Z,12.39
2023-04-29T17:18:36.111Z,12.34
2023-04-29T17:20:42.247Z,12.31
2023-04-29T17:22:47.745Z,12.28
2023-04-29T17:24:53.416Z,12.33
2023-04-29T17:26:59.659Z,12.26
2023-04-29T17:29:07.571Z,12.26
2023-04-29T17:31:12.639Z,12.20
2023-04-29T17:33:17.856Z,12.23
2023-04-29T17:35:23.187Z,12.23
2023-04-29T17:37:30.415Z,12.30
2023-04-29T17:39:36.455Z,12.21
2023-04-29T17:41:41.476Z,12.20
2023-04-29T17:43:47.303Z,12.34
2023-04-29T17:45:55.129Z,12.17
2023-04-29T17:48:00.299Z,12.08
2023-04-29T17:50:05.682Z,11.96
2023-04-29T17:52:11.120Z,11.99
2023-04-29T17:54:16.507Z,11.93
2023-04-29T17:56:23.433Z,11.93
2023-04-29T17:58:30.043Z,11.86
2023-04-29T18:00:35.181Z,11.85
2023-04-29T18:02:42.813Z,11.85
2023-04-29T18:04:48.389Z,11.82
2023-04-29T18:06:53.507Z,11.79
2023-04-29T18:08:58.565Z,11.77
2023-04-29T18:11:03.588Z,11.69
2023-04-29T18:13:08.628Z,11.71
2023-04-29T18:15:16.684Z,11.59
2023-04-29T18:17:21.876Z,11.65
2023-04-29T18:19:29.634Z,11.54
2023-04-29T18:21:34.738Z,11.48
2023-04-29T18:23:40.850Z,11.59
2023-04-29T18:25:46.301Z,11.55
2023-04-29T18:27:52.736Z,11.66
2023-04-29T18:30:02.218Z,11.63
2023-04-29T18:32:08.456Z,11.60
2023-04-29T18:34:13.536Z,11.47
2023-04-29T18:36:21.453Z,11.33
2023-04-29T18:38:27.824Z,11.33
2023-04-29T18:40:32.876Z,11.33
2023-04-29T18:42:38.036Z,11.27
2023-04-29T18:44:43.036Z,11.21
2023-04-29T18:46:48.056Z,11.16
2023-04-29T18:48:53.062Z,11.19
2023-04-29T18:51:03.989Z,11.19
2023-04-29T18:53:11.918Z,11.19
2023-04-29T18:55:16.935Z,11.16
2023-04-29T18:57:22.076Z,11.14
2023-04-29T18:59:27.105Z,11.21
2023-04-29T19:01:32.322Z,11.23
2023-04-29T19:03:37.352Z,11.21
2023-04-29T19:05:42.937Z,11.12
2023-04-29T19:07:48.238Z,11.07
2023-04-29T19:09:56.176Z,11.01
2023-04-29T19:12:03.777Z,10.99
2023-04-29T19:14:08.818Z,10.92
2023-04-29T19:16:14.352Z,10.84
2023-04-29T19:18:21.482Z,10.75
2023-04-29T19:20:27.177Z,10.74
2023-04-29T19:22:32.406Z,10.74
2023-04-29T19:24:39.023Z,10.70
2023-04-29T19:26:47.004Z,10.64
2023-04-29T19:28:52.708Z,10.60
2023-04-29T19:30:58.460Z,10.53
2023-04-29T19:33:04.442Z,10.46
2023-04-29T19:35:11.996Z,10.46
2023-04-29T19:37:18.248Z,10.48
2023-04-29T19:39:23.407Z,10.48
2023-04-29T19:41:28.933Z,10.51
2023-04-29T19:43:36.519Z,10.49
2023-04-29T19:45:41.666Z,10.45
2023-04-29T19:47:48.666Z,10.45
2023-04-29T19:49:54.618Z,10.39
2023-04-29T19:52:00.126Z,10.40
2023-04-29T19:54:05.142Z,10.39
2023-04-29T19:56:10.238Z,10.38
2023-04-29T19:58:15.397Z,10.37
2023-04-29T20:00:23.432Z,10.35
2023-04-29T20:02:28.869Z,10.32
2023-04-29T20:04:34.964Z,10.32
2023-04-29T20:06:40.364Z,10.29
2023-04-29T20:08:45.692Z,10.29
2023-04-29T20:10:51.094Z,10.28
2023-04-29T20:12:56.436Z,10.24
2023-04-29T20:15:01.771Z,10.22
2023-04-29T20:17:09.682Z,10.21
2023-04-29T20:19:14.743Z,10.24
2023-04-29T20:21:20.033Z,10.22
2023-04-29T20:23:25.092Z,10.20
2023-04-29T20:25:30.553Z,10.18
2023-04-29T20:27:35.873Z,10.16
2023-04-29T20:29:41.491Z,10.14
2023-04-29T20:31:46.903Z,10.13
2023-04-29T20:33:54.486Z,10.14
2023-04-29T20:36:05.645Z,10.12
2023-04-29T20:38:11.012Z,10.09
2023-04-29T20:40:16.831Z,10.03
2023-04-29T20:42:22.609Z,10.06
2023-04-29T20:44:27.941Z,9.99
2023-04-29T20:46:33.067Z,9.99
2023-04-29T20:48:38.682Z,9.97
2023-04-29T20:50:46.604Z,9.94
2023-04-29T20:52:52.862Z,9.91
2023-04-29T20:54:58.883Z,9.90
2023-04-29T20:57:05.817Z,9.90
2023-04-29T20:59:11.183Z,9.89
2023-04-29T21:01:16.516Z,9.84
2023-04-29T21:03:22.749Z,9.82
2023-04-29T21:05:27.856Z,9.79
2023-04-29T21:07:35.737Z,9.79
2023-04-29T21:09:41.016Z,9.80
2023-04-29T21:11:46.231Z,9.78
2023-04-29T21:13:52.493Z,9.75
2023-04-29T21:15:57.572Z,9.70
2023-04-29T21:18:02.870Z,9.66
2023-04-29T21:20:10.834Z,9.63
2023-04-29T21:22:15.841Z,9.63
2023-04-29T21:24:23.655Z,9.57
2023-04-29T21:26:29.123Z,9.56
2023-04-29T21:28:34.479Z,9.53
2023-04-29T21:30:39.553Z,9.47
2023-04-29T21:32:44.899Z,9.42
2023-04-29T21:34:50.041Z,9.43
2023-04-29T21:36:55.076Z,9.41
2023-04-29T21:39:00.148Z,9.41
2023-04-29T21:41:10.098Z,9.40
2023-04-29T21:43:15.638Z,9.42
2023-04-29T21:45:20.931Z,9.40
2023-04-29T21:47:26.351Z,9.37
2023-04-29T21:49:31.967Z,9.37
2023-04-29T21:51:37.812Z,9.37
2023-04-29T21:53:42.918Z,9.37
2023-04-29T21:55:48.048Z,9.40
2023-04-29T21:57:55.887Z,9.36
2023-04-29T22:00:00.949Z,9.37
2023-04-29T22:02:14.764Z,9.37
2023-04-29T22:04:19.902Z,9.35
2023-04-29T22:06:25.227Z,9.32
2023-04-29T22:08:30.658Z,9.29
2023-04-29T22:10:35.774Z,9.31
2023-04-29T22:12:40.801Z,9.23
2023-04-29T22:14:48.700Z,9.25
2023-04-29T22:16:53.744Z,9.21
2023-04-29T22:18:58.852Z,9.19
2023-04-29T22:21:04.073Z,9.15
2023-04-29T22:23:09.075Z,9.13
2023-04-29T22:25:14.067Z,9.06
2023-04-29T22:27:19.217Z,8.95
2023-04-29T22:29:24.969Z,8.89
2023-04-29T22:31:32.599Z,8.84
2023-04-29T22:33:38.898Z,8.75
2023-04-29T22:35:43.928Z,8.67
2023-04-29T22:37:49.179Z,8.60
2023-04-29T22:39:54.532Z,8.51
2023-04-29T22:41:59.864Z,8.41
2023-04-29T22:44:05.288Z,8.35
2023-04-29T22:46:10.383Z,8.22
2023-04-29T22:48:18.520Z,8.03
2023-04-29T22:50:23.792Z,7.86
2023-04-29T22:52:29.084Z,7.79
2023-04-29T22:54:34.247Z,7.71
2023-04-29T22:56:39.281Z,7.62
2023-04-29T22:58:44.554Z,7.52
2023-04-29T23:00:53.054Z,7.39
2023-04-29T23:02:58.080Z,7.32
2023-04-29T23:05:06.911Z,7.23
2023-04-29T23:07:11.995Z,7.13
2023-04-29T23:09:17.569Z,7.02
2023-04-29T23:11:22.857Z,6.92
2023-04-29T23:13:27.884Z,6.82
2023-04-29T23:15:33.628Z,6.77
2023-04-29T23:17:39.959Z,6.75
2023-04-29T23:19:46.448Z,6.69
2023-04-29T23:21:54.065Z,6.74
2023-04-29T23:23:59.070Z,6.59
2023-04-29T23:26:04.203Z,6.50
2023-04-29T23:28:09.448Z,6.54
2023-04-29T23:30:15.185Z,6.44
2023-04-29T23:32:20.836Z,6.45
2023-04-29T23:34:26.566Z,6.32
2023-04-29T23:36:31.572Z,6.30
2023-04-29T23:38:39.149Z,6.29
2023-04-29T23:40:44.400Z,6.13
2023-04-29T23:42:49.423Z,6.06
2023-04-29T23:44:54.694Z,6.03
2023-04-29T23:46:59.709Z,5.90
2023-04-29T23:49:04.717Z,5.76
2023-04-29T23:51:09.995Z,5.64
2023-04-29T23:53:15.933Z,5.66
2023-04-29T23:55:23.922Z,5.64
2023-04-29T23:57:28.952Z,5.65
2023-04-29T23:59:33.952Z,5.61
